Time;durP1;ratioP1;P1;durP2;ratioP2;P2;SDS_P1;SDS_P2;PMS_P1;PMS_P2;Temp;Humidity;BMP_temperature;BMP_pressure;BME280_temperature;BME280_humidity;BME280_pressure;Samples;Min_cycle;Max_cycle;Signal;HPM_P1;HPM_P2
2022/04/06 00:01:10;;;;;;;18.27;11.10;;;8.60;99.90;;;;;;5021177;28;20470;-65
2022/04/06 00:03:37;;;;;;;23.67;11.40;;;8.60;99.90;;;;;;5022489;28;20463;-65
2022/04/06 00:06:08;;;;;;;21.37;11.80;;;8.60;99.90;;;;;;5040885;28;20459;-65
2022/04/06 00:08:40;;;;;;;18.77;12.30;;;8.60;99.90;;;;;;5039737;28;20467;-65
2022/04/06 00:11:07;;;;;;;16.37;9.70;;;8.60;99.90;;;;;;5040420;28;20490;-65
2022/04/06 00:13:36;;;;;;;28.03;11.17;;;8.60;99.90;;;;;;5040668;28;20899;-65
2022/04/06 00:16:05;;;;;;;17.37;11.17;;;8.60;99.90;;;;;;5037242;28;20526;-65
2022/04/06 00:18:35;;;;;;;17.40;10.60;;;8.60;99.90;;;;;;5037732;28;20912;-65
2022/04/06 00:21:05;;;;;;;19.70;10.67;;;8.60;99.90;;;;;;5020660;28;20522;-64
2022/04/06 00:23:32;;;;;;;19.50;9.53;;;8.60;99.90;;;;;;5020364;28;20464;-64
2022/04/06 00:26:06;;;;;;;21.77;11.87;;;8.60;99.90;;;;;;5030709;28;20482;-65
2022/04/06 00:28:36;;;;;;;13.80;9.70;;;8.60;99.90;;;;;;5030213;28;20463;-64
2022/04/06 00:31:04;;;;;;;19.43;10.30;;;8.60;99.90;;;;;;5019462;28;20464;-64
2022/04/06 00:33:31;;;;;;;19.80;10.73;;;8.60;99.90;;;;;;5020096;28;20489;-64
2022/04/06 00:36:05;;;;;;;19.67;11.20;;;8.60;99.90;;;;;;5026023;28;20636;-64
2022/04/06 00:38:32;;;;;;;19.53;10.70;;;8.60;99.90;;;;;;5039765;28;20808;-64
2022/04/06 00:41:00;;;;;;;14.67;10.83;;;8.60;99.90;;;;;;5039811;28;20463;-64
2022/04/06 00:43:30;;;;;;;23.00;10.93;;;8.50;99.90;;;;;;5039802;28;20474;-64
2022/04/06 00:45:57;;;;;;;21.53;11.10;;;8.60;99.90;;;;;;5036990;28;20541;-64
2022/04/06 00:48:24;;;;;;;15.40;9.60;;;8.60;99.90;;;;;;5020482;28;20885;-65
2022/04/06 00:50:54;;;;;;;15.47;10.23;;;8.60;99.90;;;;;;5020059;28;20491;-65
2022/04/06 00:53:25;;;;;;;18.17;9.23;;;8.50;99.90;;;;;;5021078;28;20533;-64
2022/04/06 00:55:54;;;;;;;18.37;9.97;;;8.50;99.90;;;;;;5019675;28;20492;-64
2022/04/06 00:58:23;;;;;;;17.53;9.33;;;8.50;99.90;;;;;;5036358;28;20565;-65
2022/04/06 01:00:50;;;;;;;12.87;9.47;;;8.50;99.90;;;;;;5023121;28;20455;-65
2022/04/06 01:03:26;;;;;;;13.53;8.73;;;8.50;99.90;;;;;;5039213;28;20896;-64
2022/04/06 01:05:56;;;;;;;11.83;9.50;;;8.50;99.90;;;;;;5039540;28;20900;-65
2022/04/06 01:08:27;;;;;;;11.27;9.03;;;8.50;99.90;;;;;;5024284;28;20468;-65
2022/04/06 01:11:00;;;;;;;16.90;10.57;;;8.50;99.90;;;;;;5018541;28;20595;-65
2022/04/06 01:13:31;;;;;;;18.73;10.33;;;8.50;99.90;;;;;;5040072;28;20498;-65
2022/04/06 01:16:01;;;;;;;17.27;11.77;;;8.50;99.90;;;;;;5040467;28;20502;-65
2022/04/06 01:18:36;;;;;;;14.53;10.17;;;8.50;99.90;;;;;;5038451;28;20517;-64
2022/04/06 01:21:03;;;;;;;17.30;9.50;;;8.50;99.90;;;;;;5040122;28;20753;-65
2022/04/06 01:23:31;;;;;;;17.33;10.40;;;8.50;99.90;;;;;;5023701;28;20970;-65
2022/04/06 01:26:04;;;;;;;14.37;10.00;;;8.50;99.90;;;;;;5019920;28;20526;-65
2022/04/06 01:28:31;;;;;;;16.80;10.83;;;8.40;99.90;;;;;;5021866;28;20975;-65
2022/04/06 01:31:01;;;;;;;20.80;10.17;;;8.50;99.90;;;;;;5019359;28;20932;-65
2022/04/06 01:33:42;;;;;;;18.50;12.10;;;8.40;99.90;;;;;;5019801;28;20468;-64
2022/04/06 01:36:15;;;;;;;17.60;10.90;;;8.40;99.90;;;;;;5036130;28;20499;-64
2022/04/06 01:38:50;;;;;;;15.33;11.07;;;8.50;99.90;;;;;;5038830;28;20460;-64
2022/04/06 01:41:30;;;;;;;16.00;10.77;;;8.50;99.90;;;;;;5039098;28;20469;-64
2022/04/06 01:44:00;;;;;;;18.73;10.67;;;8.40;99.90;;;;;;5039127;28;20463;-64
2022/04/06 01:46:29;;;;;;;14.70;11.80;;;8.40;99.90;;;;;;5020663;28;20460;-64
2022/04/06 01:54:26;;;;;;;20.03;9.77;;;8.40;99.90;;;;;;5018317;28;20809;-65
2022/04/06 01:56:56;;;;;;;17.83;9.83;;;8.40;99.90;;;;;;5033781;28;20595;-64
2022/04/06 01:59:25;;;;;;;15.30;9.37;;;8.40;99.90;;;;;;5026318;28;20479;-64
2022/04/06 02:01:55;;;;;;;19.00;9.47;;;8.40;99.90;;;;;;5018997;28;20475;-65
2022/04/06 02:04:24;;;;;;;14.93;9.27;;;8.40;99.90;;;;;;5018481;28;20553;-65
2022/04/06 02:07:04;;;;;;;14.97;9.37;;;8.40;99.90;;;;;;5030755;28;20442;-65
2022/04/06 02:09:36;;;;;;;16.70;9.00;;;8.40;99.90;;;;;;5038878;28;20789;-65
2022/04/06 02:12:05;;;;;;;17.67;8.67;;;8.40;99.90;;;;;;5037127;28;20494;-65
2022/04/06 02:14:32;;;;;;;19.10;8.87;;;8.40;99.90;;;;;;5037852;28;20467;-65
2022/04/06 02:17:03;;;;;;;13.97;9.13;;;8.40;99.90;;;;;;5027352;28;20601;-65
2022/04/06 02:19:35;;;;;;;14.70;8.90;;;8.40;99.90;;;;;;5019002;28;20526;-65
2022/04/06 02:22:06;;;;;;;14.97;8.23;;;8.40;99.90;;;;;;5019121;28;20468;-65
2022/04/06 02:24:35;;;;;;;16.60;8.20;;;8.30;99.90;;;;;;5018135;28;20503;-65
2022/04/06 02:27:10;;;;;;;14.87;8.43;;;8.30;99.90;;;;;;5024526;28;20757;-65
2022/04/06 02:29:43;;;;;;;15.97;7.83;;;8.30;99.90;;;;;;5026052;28;20470;-64
2022/04/06 02:32:17;;;;;;;12.40;7.90;;;8.30;99.90;;;;;;5019189;28;20474;-65
2022/04/06 02:34:46;;;;;;;11.17;7.63;;;8.30;99.90;;;;;;5018186;28;20522;-65
2022/04/06 02:37:16;;;;;;;11.60;7.63;;;8.40;99.90;;;;;;5018466;28;20519;-65
2022/04/06 02:39:49;;;;;;;13.20;7.70;;;8.30;99.90;;;;;;5018374;28;20547;-65
2022/04/06 02:42:25;;;;;;;16.50;7.30;;;8.40;99.90;;;;;;5017863;28;20897;-65
2022/04/06 02:44:52;;;;;;;8.53;6.47;;;8.40;99.90;;;;;;5017989;28;20567;-65
2022/04/06 02:47:19;;;;;;;14.73;8.20;;;8.40;99.90;;;;;;5018606;28;20456;-65
2022/04/06 02:49:46;;;;;;;14.87;6.93;;;8.40;99.90;;;;;;5018110;28;20464;-65
2022/04/06 02:52:17;;;;;;;11.23;6.23;;;8.30;99.90;;;;;;5017674;28;20522;-64
2022/04/06 02:54:46;;;;;;;12.37;6.50;;;8.30;99.90;;;;;;5017858;28;20522;-65
2022/04/06 02:57:13;;;;;;;13.90;7.20;;;8.30;99.90;;;;;;5022220;28;20974;-65
2022/04/06 02:59:40;;;;;;;10.53;6.33;;;8.40;99.90;;;;;;5025304;28;20502;-65
2022/04/06 03:02:07;;;;;;;12.33;6.03;;;8.30;99.90;;;;;;5017802;28;20467;-65
2022/04/06 03:04:39;;;;;;;11.00;6.57;;;8.30;99.90;;;;;;5017757;28;20467;-66
2022/04/06 03:07:07;;;;;;;11.67;6.87;;;8.30;99.90;;;;;;5017359;28;20919;-65
2022/04/06 03:09:34;;;;;;;12.70;6.30;;;8.30;99.90;;;;;;5037481;28;20467;-65
2022/04/06 03:12:05;;;;;;;13.20;6.20;;;8.30;99.90;;;;;;5036843;28;20548;-66
2022/04/06 03:14:34;;;;;;;8.40;6.23;;;8.30;99.90;;;;;;5036995;28;20471;-66
2022/04/06 03:17:01;;;;;;;14.70;6.77;;;8.30;99.90;;;;;;5037266;28;20499;-65
2022/04/06 03:19:31;;;;;;;6.97;5.50;;;8.30;99.90;;;;;;5020472;28;20518;-66
2022/04/06 03:21:58;;;;;;;9.87;6.27;;;8.30;99.90;;;;;;5017643;28;20920;-66
2022/04/06 03:24:25;;;;;;;12.47;6.90;;;8.30;99.90;;;;;;5016864;28;20462;-66
2022/04/06 03:26:55;;;;;;;10.63;7.03;;;8.30;99.90;;;;;;5017594;28;20752;-67
2022/04/06 03:29:32;;;;;;;10.97;7.97;;;8.30;99.90;;;;;;5018174;28;20475;-66
2022/04/06 03:32:01;;;;;;;10.17;6.77;;;8.30;99.90;;;;;;5017769;28;20506;-66
2022/04/06 03:34:28;;;;;;;10.50;6.77;;;8.30;99.90;;;;;;5016544;28;20470;-67
2022/04/06 03:37:01;;;;;;;9.70;7.70;;;8.30;99.90;;;;;;5016962;28;20554;-67
2022/04/06 03:39:28;;;;;;;14.20;9.00;;;8.30;99.90;;;;;;5025441;28;20470;-67
2022/04/06 03:42:00;;;;;;;12.77;7.77;;;8.30;99.90;;;;;;5036627;28;20467;-67
2022/04/06 03:44:28;;;;;;;12.73;7.07;;;8.30;99.90;;;;;;5036199;28;20470;-67
2022/04/06 03:46:56;;;;;;;10.63;7.90;;;8.20;99.90;;;;;;5036449;28;20513;-66
2022/04/06 03:49:24;;;;;;;15.10;8.13;;;8.20;99.90;;;;;;5032369;28;20518;-68
2022/04/06 03:51:51;;;;;;;14.17;7.67;;;8.20;99.90;;;;;;5017024;28;20514;-67
2022/04/06 03:54:18;;;;;;;15.50;7.70;;;8.30;99.90;;;;;;5018061;28;20476;-67
2022/04/06 03:56:45;;;;;;;14.50;8.40;;;8.30;99.90;;;;;;5032604;28;21129;-68
2022/04/06 03:59:12;;;;;;;11.30;8.40;;;8.20;99.90;;;;;;5034224;28;20499;-67
2022/04/06 04:01:44;;;;;;;14.13;8.13;;;8.30;99.90;;;;;;5016978;28;20468;-68
2022/04/06 04:04:14;;;;;;;12.03;7.40;;;8.20;99.90;;;;;;5017102;28;20538;-69
2022/04/06 04:06:41;;;;;;;10.87;8.77;;;8.20;99.90;;;;;;5016675;28;20522;-69
2022/04/06 04:09:11;;;;;;;14.67;8.23;;;8.30;99.90;;;;;;5016983;28;20468;-68
2022/04/06 04:11:44;;;;;;;14.57;8.93;;;8.30;99.90;;;;;;5030598;28;20513;-67
2022/04/06 04:14:14;;;;;;;10.63;7.50;;;8.30;99.90;;;;;;5036415;28;20486;-68
2022/04/06 04:16:45;;;;;;;10.07;8.13;;;8.20;99.90;;;;;;5016439;28;20514;-68
2022/04/06 04:19:15;;;;;;;10.50;7.53;;;8.20;99.90;;;;;;5017191;28;20761;-68
2022/04/06 04:21:43;;;;;;;13.17;8.37;;;8.20;99.90;;;;;;5030717;28;20471;-67
2022/04/06 04:24:10;;;;;;;9.63;6.93;;;8.20;99.90;;;;;;5036498;28;20818;-68
2022/04/06 04:26:39;;;;;;;13.00;7.40;;;8.20;99.90;;;;;;5017555;28;20476;-68
2022/04/06 04:29:07;;;;;;;10.30;7.60;;;8.10;99.90;;;;;;5022773;28;20476;-69
2022/04/06 04:31:35;;;;;;;12.07;7.63;;;8.10;99.90;;;;;;5036440;28;20467;-68
2022/04/06 04:34:05;;;;;;;10.07;7.00;;;8.00;99.90;;;;;;5036712;28;20887;-68
2022/04/06 04:36:34;;;;;;;9.10;6.90;;;8.00;99.90;;;;;;5023571;28;20480;-68
2022/04/06 04:39:02;;;;;;;9.73;6.83;;;8.10;99.90;;;;;;5024151;28;20478;-68
2022/04/06 04:41:30;;;;;;;13.03;7.27;;;8.00;99.90;;;;;;5022961;28;20746;-68
2022/04/06 04:44:01;;;;;;;8.43;6.50;;;8.00;99.90;;;;;;5021641;28;20464;-68
2022/04/06 04:46:28;;;;;;;10.80;6.23;;;8.00;99.90;;;;;;5023970;28;20533;-68
2022/04/06 04:48:55;;;;;;;11.23;5.30;;;8.00;99.90;;;;;;5031988;28;20456;-68
2022/04/06 04:51:23;;;;;;;8.10;5.20;;;8.00;99.90;;;;;;5023047;28;20460;-69
2022/04/06 04:53:57;;;;;;;8.53;5.00;;;8.00;99.90;;;;;;5028550;28;20482;-68
2022/04/06 04:56:30;;;;;;;9.60;5.57;;;8.00;99.90;;;;;;5023037;28;20452;-68
2022/04/06 04:58:57;;;;;;;6.97;4.90;;;8.10;99.90;;;;;;5023932;28;20496;-68
2022/04/06 05:01:30;;;;;;;9.63;5.20;;;8.10;99.90;;;;;;5024361;28;20472;-69
2022/04/06 05:03:57;;;;;;;10.37;5.40;;;8.10;1.00;;;;;;5024145;28;20476;-68
2022/04/06 05:06:30;;;;;;;7.63;4.70;;;8.20;1.00;;;;;;5024044;28;20812;-69
2022/04/06 05:09:00;;;;;;;12.20;6.00;;;8.20;1.00;;;;;;5025009;28;20547;-68
2022/04/06 05:11:30;;;;;;;7.73;4.90;;;8.10;1.00;;;;;;5039456;28;20542;-69
2022/04/06 05:13:56;;;;;;;9.00;5.37;;;8.20;1.00;;;;;;5030849;28;20472;-68
2022/04/06 05:16:29;;;;;;;10.27;5.70;;;8.20;1.00;;;;;;5031920;28;20962;-68
2022/04/06 05:18:56;;;;;;;8.27;5.20;;;8.20;1.00;;;;;;5030717;28;20932;-69
2022/04/06 05:21:25;;;;;;;8.40;4.73;;;8.20;1.00;;;;;;5032178;28;20464;-68
2022/04/06 05:23:54;;;;;;;11.30;5.00;;;8.20;1.00;;;;;;5030803;28;20452;-69
2022/04/06 05:26:24;;;;;;;14.30;6.47;;;8.20;1.00;;;;;;5029107;28;20491;-68
2022/04/06 05:28:54;;;;;;;10.70;5.17;;;8.30;1.00;;;;;;5027582;28;20464;-69
2022/04/06 05:31:21;;;;;;;7.17;4.37;;;8.30;1.00;;;;;;5026941;28;20487;-68
2022/04/06 05:33:48;;;;;;;8.50;4.57;;;8.30;99.90;;;;;;5025933;28;20487;-68
2022/04/06 05:36:20;;;;;;;10.70;4.97;;;8.30;99.90;;;;;;5027142;28;20470;-69
2022/04/06 05:38:48;;;;;;;10.10;6.07;;;8.30;99.90;;;;;;5025460;28;20523;-69
2022/04/06 05:41:15;;;;;;;12.70;6.00;;;8.30;1.00;;;;;;5029372;28;20457;-69
2022/04/06 05:43:42;;;;;;;6.47;5.40;;;8.30;1.00;;;;;;5020466;28;20498;-69
2022/04/06 05:46:09;;;;;;;9.60;5.60;;;8.30;1.00;;;;;;5037392;28;20494;-70
2022/04/06 05:48:38;;;;;;;10.27;5.83;;;8.30;1.00;;;;;;5031218;28;20510;-70
2022/04/06 05:51:06;;;;;;;14.00;6.57;;;8.30;1.00;;;;;;5023658;28;20507;-69
2022/04/06 05:53:33;;;;;;;8.13;5.63;;;8.30;1.00;;;;;;5018496;28;20461;-69
2022/04/06 05:56:05;;;;;;;13.80;5.23;;;8.30;1.00;;;;;;5017479;28;20476;-69
2022/04/06 05:58:54;;;;;;;11.67;6.00;;;8.30;1.00;;;;;;5016829;28;20500;-69
2022/04/06 06:01:22;;;;;;;10.83;5.67;;;8.30;1.00;;;;;;5035354;28;20463;-69
2022/04/06 06:03:48;;;;;;;9.80;5.63;;;8.30;1.00;;;;;;5037330;28;20470;-69
2022/04/06 06:06:16;;;;;;;8.70;5.80;;;8.40;1.00;;;;;;5034507;28;20472;-69
2022/04/06 06:08:43;;;;;;;11.53;6.50;;;8.40;1.00;;;;;;5016452;28;20904;-69
2022/04/06 06:11:14;;;;;;;10.60;5.40;;;8.40;1.00;;;;;;5032537;28;20708;-69
2022/04/06 06:13:41;;;;;;;13.63;5.80;;;8.30;1.00;;;;;;5021499;28;21069;-69
2022/04/06 06:16:08;;;;;;;11.87;5.97;;;8.30;1.00;;;;;;5025494;28;20779;-70
2022/04/06 06:18:35;;;;;;;8.90;5.90;;;8.40;1.00;;;;;;5028666;28;20593;-70
2022/04/06 06:21:11;;;;;;;10.93;7.20;;;8.30;1.00;;;;;;5018479;28;20739;-69
2022/04/06 06:23:41;;;;;;;11.23;6.20;;;8.40;1.00;;;;;;5026854;28;20479;-70
2022/04/06 06:26:09;;;;;;;14.00;5.87;;;8.40;1.00;;;;;;5031447;28;20467;-69
2022/04/06 06:28:52;;;;;;;7.07;5.30;;;8.40;1.00;;;;;;5037646;28;20486;-69
2022/04/06 06:31:22;;;;;;;8.70;5.87;;;8.40;1.00;;;;;;5034456;28;20442;-70
2022/04/06 06:33:49;;;;;;;9.70;6.50;;;8.50;1.00;;;;;;5038074;28;20551;-69
2022/04/06 06:36:19;;;;;;;8.00;5.97;;;8.50;1.00;;;;;;5026560;28;20464;-70
2022/04/06 06:38:49;;;;;;;11.50;6.90;;;8.40;1.00;;;;;;5017953;28;20549;-69
2022/04/06 06:41:21;;;;;;;9.90;6.30;;;8.50;1.00;;;;;;5019377;28;20522;-71
2022/04/06 06:43:50;;;;;;;8.80;6.33;;;8.40;1.00;;;;;;5019189;28;20479;-69
2022/04/06 06:46:25;;;;;;;11.67;6.10;;;8.40;1.00;;;;;;5019691;28;20538;-70
2022/04/06 06:48:59;;;;;;;11.97;6.20;;;8.50;1.00;;;;;;5020943;28;20482;-70
2022/04/06 06:51:30;;;;;;;8.30;5.10;;;8.40;1.00;;;;;;5018138;28;20559;-70
2022/04/06 06:54:00;;;;;;;12.83;6.23;;;8.40;1.00;;;;;;5037438;28;20494;-70
2022/04/06 06:56:30;;;;;;;7.27;5.23;;;8.40;1.00;;;;;;5036710;28;20463;-70
2022/04/06 06:59:15;;;;;;;7.30;5.07;;;8.40;1.00;;;;;;5020669;28;20492;-70
2022/04/06 07:01:43;;;;;;;12.20;5.30;;;8.40;1.00;;;;;;5018065;28;20471;-70
2022/04/06 07:04:13;;;;;;;13.20;6.27;;;8.40;1.00;;;;;;5034804;28;20887;-69
2022/04/06 07:06:41;;;;;;;7.87;5.77;;;8.40;1.00;;;;;;5036861;28;20470;-70
2022/04/06 07:09:19;;;;;;;15.40;5.80;;;8.40;1.00;;;;;;5036659;28;20459;-69
2022/04/06 07:11:47;;;;;;;8.33;5.33;;;8.50;1.00;;;;;;5034984;28;20486;-70
2022/04/06 07:14:18;;;;;;;10.27;5.60;;;8.50;1.00;;;;;;5022447;28;20439;-69
2022/04/06 07:16:54;;;;;;;8.57;5.17;;;8.50;1.00;;;;;;5017726;28;20467;-69
2022/04/06 07:19:22;;;;;;;13.33;5.90;;;8.50;1.00;;;;;;5017227;28;20506;-71
2022/04/06 07:21:53;;;;;;;11.93;5.67;;;8.50;1.00;;;;;;5020844;28;20498;-70
2022/04/06 07:24:20;;;;;;;8.17;5.40;;;8.50;1.00;;;;;;5025067;28;20503;-70
2022/04/06 07:26:50;;;;;;;10.20;5.77;;;8.50;1.00;;;;;;5017517;28;20467;-70
2022/04/06 07:29:21;;;;;;;8.00;5.03;;;8.50;1.00;;;;;;5023738;28;20494;-70
2022/04/06 07:31:48;;;;;;;12.43;5.73;;;8.50;1.00;;;;;;5032669;28;20912;-70
2022/04/06 07:34:15;;;;;;;10.90;5.73;;;8.50;1.00;;;;;;5023834;28;20467;-70
2022/04/06 07:36:45;;;;;;;11.57;6.10;;;8.60;1.00;;;;;;5036730;28;20467;-70
2022/04/06 07:39:12;;;;;;;9.17;5.50;;;8.60;99.90;;;;;;5036668;28;20492;-70
2022/04/06 07:41:41;;;;;;;10.00;5.80;;;8.60;99.90;;;;;;5037684;28;20463;-69
2022/04/06 07:44:08;;;;;;;11.57;6.70;;;8.60;1.00;;;;;;5033225;28;20521;-69
2022/04/06 07:46:38;;;;;;;10.33;6.60;;;8.60;1.00;;;;;;5015285;28;20464;-70
2022/04/06 07:49:07;;;;;;;7.87;5.50;;;8.60;99.90;;;;;;5022521;28;20434;-69
2022/04/06 07:51:36;;;;;;;6.77;5.30;;;8.60;99.90;;;;;;5034439;28;20474;-69
2022/04/06 07:54:06;;;;;;;12.23;6.93;;;8.60;99.90;;;;;;5022599;28;20467;-69
2022/04/06 07:56:48;;;;;;;7.50;5.67;;;8.60;99.90;;;;;;5025807;28;20467;-70
2022/04/06 07:59:23;;;;;;;6.73;5.47;;;8.60;99.90;;;;;;5017864;28;20492;-70
2022/04/06 08:01:51;;;;;;;8.80;5.90;;;8.50;1.00;;;;;;5016826;28;20554;-69
2022/04/06 08:04:18;;;;;;;6.73;5.00;;;8.40;1.00;;;;;;5015981;28;20463;-70
2022/04/06 08:06:45;;;;;;;14.23;5.97;;;8.40;1.00;;;;;;5015896;28;20468;-69
2022/04/06 08:09:12;;;;;;;12.77;6.27;;;8.50;1.00;;;;;;5025797;28;20906;-70
2022/04/06 08:11:39;;;;;;;6.20;5.47;;;8.50;1.00;;;;;;5036492;28;20537;-69
2022/04/06 08:14:23;;;;;;;7.47;5.90;;;8.50;99.90;;;;;;5036832;28;20966;-69
2022/04/06 08:17:16;;;;;;;8.20;5.27;;;8.50;1.00;;;;;;5023928;28;20972;-69
2022/04/06 08:19:43;;;;;;;9.87;6.27;;;8.50;99.90;;;;;;5018584;28;20496;-70
2022/04/06 08:22:12;;;;;;;7.87;6.03;;;8.50;99.90;;;;;;5025947;28;20459;-70
2022/04/06 08:24:46;;;;;;;8.80;6.03;;;8.50;1.00;;;;;;5039750;28;20455;-69
2022/04/06 08:27:13;;;;;;;8.27;5.90;;;8.60;1.00;;;;;;5027874;28;20459;-69
2022/04/06 08:29:43;;;;;;;7.27;5.20;;;8.50;99.90;;;;;;5020478;28;20913;-69
2022/04/06 08:32:14;;;;;;;5.73;4.63;;;8.50;99.90;;;;;;5020443;28;20488;-70
2022/04/06 08:34:46;;;;;;;6.67;5.00;;;8.50;99.90;;;;;;5020586;28;20468;-70
2022/04/06 08:37:16;;;;;;;7.70;5.00;;;8.50;99.90;;;;;;5027757;28;20471;-69
2022/04/06 08:39:45;;;;;;;6.97;5.20;;;8.50;99.90;;;;;;5023993;28;20507;-69
2022/04/06 08:42:18;;;;;;;6.33;5.10;;;8.60;99.90;;;;;;5020371;28;20765;-69
2022/04/06 08:44:46;;;;;;;10.10;6.90;;;8.60;99.90;;;;;;5020372;28;20518;-69
2022/04/06 08:47:14;;;;;;;11.97;7.30;;;8.70;99.90;;;;;;5023067;28;20546;-69
2022/04/06 08:49:47;;;;;;;14.93;7.33;;;8.70;99.90;;;;;;5039698;28;20825;-70
2022/04/06 08:52:21;;;;;;;7.87;4.73;;;8.70;99.90;;;;;;5032144;28;20566;-69
2022/04/06 08:54:54;;;;;;;13.93;7.17;;;8.70;99.90;;;;;;5020060;28;20463;-69
2022/04/06 08:57:21;;;;;;;11.50;7.90;;;8.70;99.90;;;;;;5020850;28;20885;-68
2022/04/06 08:59:49;;;;;;;18.33;9.63;;;8.80;99.90;;;;;;5020035;28;20837;-69
2022/04/06 09:02:22;;;;;;;9.03;4.60;;;8.90;99.90;;;;;;5021177;28;20547;-69
2022/04/06 09:05:02;;;;;;;11.80;7.50;;;8.80;92.20;;;;;;5020122;28;20471;-69
2022/04/06 09:07:30;;;;;;;11.77;7.33;;;8.90;39.30;;;;;;5020244;28;20468;-69
2022/04/06 09:09:58;;;;;;;8.90;5.77;;;9.00;43.80;;;;;;5038531;28;20463;-69
2022/04/06 09:12:28;;;;;;;12.27;6.50;;;9.00;15.90;;;;;;5039026;28;20491;-69
2022/04/06 09:15:09;;;;;;;11.87;7.87;;;9.00;11.70;;;;;;5039878;28;20554;-69
2022/04/06 09:17:45;;;;;;;9.17;5.30;;;9.10;1.00;;;;;;5040476;28;20467;-69
2022/04/06 09:20:13;;;;;;;15.37;9.20;;;9.00;1.00;;;;;;5022271;28;20999;-68
2022/04/06 09:22:41;;;;;;;18.40;9.30;;;9.00;1.00;;;;;;5027407;28;20470;-70
2022/04/06 09:25:10;;;;;;;14.73;8.83;;;9.10;1.00;;;;;;5019637;28;20472;-68
2022/04/06 09:27:41;;;;;;;7.13;3.67;;;9.30;1.00;;;;;;5020224;28;20897;-69
2022/04/06 09:30:12;;;;;;;14.90;9.73;;;9.50;1.00;;;;;;5019662;28;20460;-69
2022/04/06 09:32:47;;;;;;;11.87;6.80;;;9.50;1.00;;;;;;5018227;28;20463;-68
2022/04/06 09:35:30;;;;;;;5.37;3.40;;;9.70;1.00;;;;;;5026890;28;20456;-69
2022/04/06 09:38:13;;;;;;;6.30;3.67;;;9.70;1.00;;;;;;5039746;28;20467;-69
2022/04/06 09:40:41;;;;;;;32.60;14.30;;;9.90;1.00;;;;;;5024501;28;20492;-69
2022/04/06 09:43:09;;;;;;;13.23;9.00;;;9.90;1.00;;;;;;5028420;28;20912;-68
2022/04/06 09:48:28;;;;;;;5.70;3.83;;;10.20;1.00;;;;;;5018349;28;20514;-69
2022/04/06 09:51:00;;;;;;;7.97;3.50;;;10.40;1.00;;;;;;5027057;28;20497;-68
2022/04/06 09:53:29;;;;;;;7.90;3.20;;;10.70;1.00;;;;;;5021187;28;20756;-68
2022/04/06 09:55:57;;;;;;;4.60;2.80;;;10.60;1.00;;;;;;5027386;28;20507;-68
2022/04/06 09:58:28;;;;;;;7.73;3.23;;;10.70;1.00;;;;;;5039376;28;20843;-68
2022/04/06 10:01:03;;;;;;;4.63;3.10;;;10.60;1.00;;;;;;5030775;28;20741;-68
2022/04/06 10:03:38;;;;;;;4.47;2.97;;;10.50;1.00;;;;;;5023358;28;20475;-69
2022/04/06 10:06:06;;;;;;;6.30;3.43;;;10.20;1.00;;;;;;5023123;28;20506;-68
2022/04/06 10:08:34;;;;;;;5.50;3.10;;;10.00;1.00;;;;;;5019558;28;20474;-68
2022/04/06 10:11:03;;;;;;;6.53;3.70;;;10.00;1.00;;;;;;5023810;28;20467;-68
2022/04/06 10:13:33;;;;;;;6.13;3.37;;;9.90;1.00;;;;;;5001098;28;20439;-69
2022/04/06 10:16:00;;;;;;;4.83;3.47;;;9.80;1.00;;;;;;4986159;28;20447;-68
2022/04/06 10:18:29;;;;;;;8.27;4.50;;;9.80;1.00;;;;;;4979982;28;20466;-68
2022/04/06 10:21:10;;;;;;;4.90;2.70;;;9.70;1.00;;;;;;4982411;28;20497;-68
2022/04/06 10:23:48;;;;;;;4.83;4.10;;;9.80;1.00;;;;;;4979975;28;20470;-68
2022/04/06 10:26:27;;;;;;;7.80;4.10;;;9.80;1.00;;;;;;4978781;28;20462;-68
2022/04/06 10:28:54;;;;;;;7.87;3.70;;;9.90;1.00;;;;;;4981727;28;20762;-68
2022/04/06 10:31:32;;;;;;;6.13;3.50;;;9.80;1.00;;;;;;4982391;28;20461;-68
2022/04/06 10:34:20;;;;;;;6.70;5.17;;;9.80;1.00;;;;;;4991022;28;20492;-68
2022/04/06 10:37:10;;;;;;;4.20;3.13;;;9.80;1.00;;;;;;4983221;28;20537;-69
2022/04/06 10:40:01;;;;;;;10.23;4.00;;;9.70;1.00;;;;;;4985248;28;20551;-68
2022/04/06 10:42:33;;;;;;;9.80;4.90;;;9.70;1.00;;;;;;4985823;28;20448;-68
2022/04/06 10:45:26;;;;;;;5.63;3.97;;;9.70;1.00;;;;;;4981840;28;20466;-68
2022/04/06 10:48:12;;;;;;;6.90;4.00;;;9.60;1.00;;;;;;4998479;28;20519;-68
2022/04/06 10:50:45;;;;;;;8.60;4.23;;;9.60;1.00;;;;;;4997921;28;20460;-69
2022/04/06 10:53:32;;;;;;;5.33;4.23;;;9.70;1.00;;;;;;4983575;28;20458;-69
2022/04/06 10:56:03;;;;;;;5.70;3.80;;;9.60;1.00;;;;;;4988294;28;20458;-69
2022/04/06 10:59:05;;;;;;;6.40;4.03;;;9.60;1.00;;;;;;4986527;28;20466;-68
2022/04/06 11:01:38;;;;;;;8.03;4.43;;;9.70;1.00;;;;;;4990608;28;20480;-68
2022/04/06 11:04:09;;;;;;;8.20;4.47;;;9.60;1.00;;;;;;4999611;28;20528;-69
2022/04/06 11:06:56;;;;;;;10.07;4.90;;;9.70;1.00;;;;;;4986897;28;20473;-69
2022/04/06 11:12:15;;;;;;;8.10;4.23;;;9.70;1.00;;;;;;5018041;28;20781;-68
2022/04/06 11:14:44;;;;;;;7.90;4.63;;;9.80;1.00;;;;;;5037860;28;20466;-68
2022/04/06 11:17:42;;;;;;;8.00;5.20;;;9.90;1.00;;;;;;5034880;28;20443;-67
2022/04/06 11:20:13;;;;;;;8.53;6.83;;;9.90;1.00;;;;;;4992664;28;20792;-68
2022/04/06 11:22:43;;;;;;;6.43;5.77;;;9.90;1.00;;;;;;5018595;28;20468;-68
2022/04/06 11:25:13;;;;;;;9.37;5.63;;;9.90;1.00;;;;;;5017983;28;20500;-68
2022/04/06 11:27:45;;;;;;;9.63;6.90;;;9.80;1.00;;;;;;5019050;28;20894;-68
2022/04/06 11:30:14;;;;;;;9.00;7.17;;;9.80;1.00;;;;;;5027218;28;20765;-68
2022/04/06 11:32:51;;;;;;;12.93;5.80;;;9.80;1.00;;;;;;5020916;28;20522;-69
2022/04/06 11:35:21;;;;;;;9.67;6.30;;;9.70;1.00;;;;;;5017638;28;20554;-70
2022/04/06 11:37:50;;;;;;;6.93;5.70;;;9.90;1.00;;;;;;5016576;28;20460;-70
2022/04/06 11:40:24;;;;;;;6.80;5.60;;;10.10;1.00;;;;;;5017282;28;20503;-71
2022/04/06 11:42:58;;;;;;;9.03;6.17;;;10.00;1.00;;;;;;5019044;28;20463;-71
2022/04/06 11:45:28;;;;;;;10.80;6.33;;;10.00;1.00;;;;;;5028512;28;20761;-71
2022/04/06 11:47:57;;;;;;;5.63;5.10;;;10.00;1.00;;;;;;5029834;28;20474;-70
2022/04/06 11:50:32;;;;;;;6.43;5.23;;;10.00;1.00;;;;;;5021913;28;20463;-70
2022/04/06 11:53:01;;;;;;;5.23;4.67;;;9.90;1.00;;;;;;5033379;28;20467;-70
2022/04/06 11:55:55;;;;;;;6.13;5.10;;;10.00;1.00;;;;;;5039007;28;20517;-70
2022/04/06 11:58:36;;;;;;;5.50;4.67;;;10.20;1.00;;;;;;5026720;28;20980;-70
2022/04/06 12:01:27;;;;;;;7.50;4.30;;;10.30;1.00;;;;;;5034013;28;20549;-70
2022/04/06 12:04:00;;;;;;;5.63;4.07;;;10.20;1.00;;;;;;5025545;28;20545;-70
2022/04/06 12:06:36;;;;;;;6.03;3.87;;;10.30;1.00;;;;;;5021143;28;20471;-71
2022/04/06 12:09:06;;;;;;;6.47;4.70;;;10.20;1.00;;;;;;5020767;28;20495;-70
2022/04/06 12:11:35;;;;;;;6.17;3.97;;;10.20;1.00;;;;;;5020969;28;21026;-70
2022/04/06 12:14:11;;;;;;;6.30;4.10;;;10.20;1.00;;;;;;5021462;28;20518;-70
2022/04/06 12:16:39;;;;;;;6.57;4.00;;;10.30;1.00;;;;;;5031436;28;20554;-70
2022/04/06 12:19:12;;;;;;;4.60;3.80;;;10.40;1.00;;;;;;5038435;28;20530;-70
2022/04/06 12:21:45;;;;;;;4.53;3.53;;;10.40;1.00;;;;;;5040410;28;20463;-70
2022/04/06 12:24:20;;;;;;;9.43;4.63;;;10.40;1.00;;;;;;5028962;28;20468;-70
2022/04/06 12:26:54;;;;;;;9.87;4.43;;;10.30;1.00;;;;;;5020779;28;20487;-70
2022/04/06 12:29:27;;;;;;;5.60;3.60;;;10.30;1.00;;;;;;5023026;28;20465;-70
2022/04/06 12:31:57;;;;;;;4.63;3.50;;;10.10;1.00;;;;;;5031339;28;20465;-68
2022/04/06 12:34:36;;;;;;;7.83;4.17;;;10.00;19.90;;;;;;5035089;28;20463;-68
2022/04/06 12:39:52;;;;;;;5.73;5.13;;;9.80;81.60;;;;;;5033772;28;20915;-67
2022/04/06 12:42:24;;;;;;;6.50;5.50;;;9.80;99.90;;;;;;5039991;28;20826;-68
2022/04/06 12:45:06;;;;;;;6.20;5.00;;;9.80;98.50;;;;;;5039880;28;20954;-68
2022/04/06 12:47:34;;;;;;;7.83;5.50;;;9.80;28.20;;;;;;5040667;28;20520;-68
2022/04/06 12:50:19;;;;;;;6.90;6.30;;;9.90;1.00;;;;;;5041634;28;20482;-67
2022/04/06 12:52:47;;;;;;;8.23;7.33;;;9.90;1.00;;;;;;5022502;28;20471;-67
2022/04/06 12:55:20;;;;;;;10.13;6.50;;;9.90;23.20;;;;;;5024445;28;20784;-68
2022/04/06 12:58:16;;;;;;;9.80;6.73;;;9.90;60.00;;;;;;5019996;28;20467;-68
2022/04/06 13:00:45;;;;;;;10.27;7.90;;;9.90;99.90;;;;;;5028220;28;20936;-68
2022/04/06 13:03:17;;;;;;;10.70;5.23;;;9.80;99.90;;;;;;5041029;28;20467;-68
2022/04/06 13:05:54;;;;;;;8.00;5.30;;;9.70;99.90;;;;;;5028740;28;20470;-68
2022/04/06 13:08:24;;;;;;;9.73;8.13;;;9.70;99.90;;;;;;5026278;28;20978;-68
2022/04/06 13:10:51;;;;;;;13.63;8.07;;;9.70;99.90;;;;;;5030364;28;20497;-68
2022/04/06 13:13:21;;;;;;;10.13;6.80;;;9.60;99.90;;;;;;5025726;28;20997;-68
2022/04/06 13:15:52;;;;;;;8.93;7.43;;;9.40;99.90;;;;;;5023990;28;20471;-69
2022/04/06 13:18:24;;;;;;;7.07;4.30;;;9.30;1.00;;;;;;5033756;28;20464;-68
2022/04/06 13:20:58;;;;;;;8.50;4.37;;;9.20;1.00;;;;;;5025760;28;20523;-68
2022/04/06 13:23:29;;;;;;;7.57;4.77;;;9.30;1.00;;;;;;5022733;28;20896;-71
2022/04/06 13:26:11;;;;;;;5.70;4.13;;;9.40;1.00;;;;;;5018985;28;20463;-71
2022/04/06 13:28:39;;;;;;;8.20;5.00;;;9.30;1.00;;;;;;5020307;28;20452;-71
2022/04/06 13:31:07;;;;;;;8.87;5.17;;;9.30;1.00;;;;;;5027677;28;20460;-71